Rolla, North Dakota
Current Conditions -  °F | °C
As of 6:55 AM on Saturday 25 Oct 2014 (Local Time) from K06D Reporting Station
Clear Clear  
Wind Chill:   Ceiling: Unl
Heat Index:   Visibility: 10mi
Dew Point: -4°   Wind: 12mph
Humidity: 49%   Direction: 320°NW
Pressure: 30.04"   Gusts: NA
Location:  48.86°N, 99.62°W
Report Text: K06D 251155Z AUTO 32010KT 10SM CLR 06/M04 A3004 RMK AO2
Loading
Personal Weather Stations






























Interactive Weather Map
Tropical Storm Tracking
New forecast layout! Learn more

10-Day Weather Forecast

Advertisements
Track Severe Weather on mobile